Laurens, New York
Current Conditions -  °F | °C
As of 10:55 AM on Friday 24 Oct 2014 (Local Time) from KNY0 Reporting Station
Overcast Overcast  
Wind Chill: 40°   Ceiling: 3400
Heat Index: 45°   Visibility: 7mi
Dew Point: 42°   Wind: 9mph
Humidity: 89%   Direction: 280°W
Pressure: 29.86"   Gusts: NA
Location:  42.53°N, 75.09°W
Report Text: KNY0 241455Z AUTO 28008KT 7SM BKN034 OVC039 07/06 A2986 RMK AO2 T00730056
Loading
Personal Weather Stations






























Interactive Weather Map
Tropical Storm Tracking
New forecast layout! Learn more

10-Day Weather Forecast

Advertisements
Track Severe Weather on mobile